Hamnavoe — VSTY7 — position and weather

sailwx.info

Track history (hours):
 
Tides and Currents Weather Stations Pressure Air Temp Water Temp Dewpoint Dewpoint Depression Visibility Wind Speed Wind Dir Waves Ship Positions

Hamnavoe

Operator: NorthLink Orkey & Shetland Ferries Ltd

Last reported at 2017-Jun-23 08:30 UTC. Time now 2017-Jun-23 08:42 UTC.
Position N 58°50' W 003°29'.

Length 112 m; draft 4.2 m.

Type: Ship. MMSI: 235449000.

Date/timePositionNaut miles runAvg speedWind from/ knotsBaromVisibWave heightAir tempDewpointWater temp
2017-Jun-23 08:30N 58°50' W 003°29'917.4
2017-Jun-23 08:00N 58°42' W 003°30'510.2
2017-Jun-23 07:30N 58°37' W 003°32'0 0.1
2017-Jun-23 06:59N 58°37' W 003°32'816.0
2017-Jun-23 06:30N 58°44' W 003°30'917.9
2017-Jun-23 06:00N 58°53' W 003°28'713.2
2017-Jun-23 05:30N 58°57' W 003°18'1 1.0
2017-Jun-23 04:57N 58°58' W 003°18'0 0.0
2017-Jun-23 04:27N 58°58' W 003°18'0 0.0
2017-Jun-23 03:57N 58°58' W 003°18'0 0.0
2017-Jun-23 03:27N 58°58' W 003°18'0 0.0
2017-Jun-23 02:57N 58°58' W 003°18'0 0.0
2017-Jun-23 02:27N 58°58' W 003°18'0 0.0
2017-Jun-23 01:57N 58°58' W 003°18'0 0.0
2017-Jun-23 01:28N 58°58' W 003°18'0 0.0
2017-Jun-23 01:00N 58°58' W 003°18'0 0.0
2017-Jun-23 00:27N 58°58' W 003°18'0 0.0
2017-Jun-22 23:57N 58°58' W 003°18'0 0.0
2017-Jun-22 23:27N 58°58' W 003°18'0 0.0
2017-Jun-22 22:57N 58°58' W 003°18'0 0.0
2017-Jun-22 22:30N 58°58' W 003°18'0 0.0
2017-Jun-22 22:00N 58°58' W 003°18'0 0.0
2017-Jun-22 21:15N 58°58' W 003°18'0 0.0
2017-Jun-22 21:00N 58°58' W 003°18'0 0.0
2017-Jun-22 20:30N 58°58' W 003°18'0 0.0
2017-Jun-22 19:57N 58°58' W 003°18'0 0.0
2017-Jun-22 19:30N 58°58' W 003°18'611.5
2017-Jun-22 19:00N 58°54' W 003°27'816.9
2017-Jun-22 18:30N 58°46' W 003°31'917.9
2017-Jun-22 18:00N 58°37' W 003°32'1 1.1
2017-Jun-22 17:26N 58°37' W 003°32'3 7.6
2017-Jun-22 17:01N 58°40' W 003°30'917.6
2017-Jun-22 16:31N 58°48' W 003°27'916.9
2017-Jun-22 16:00N 58°56' W 003°23'3 5.7
2017-Jun-22 15:30N 58°58' W 003°18'0 0.0
2017-Jun-22 15:00N 58°58' W 003°18'0 0.0
2017-Jun-22 14:30N 58°58' W 003°18'1 1.0
2017-Jun-22 13:30N 58°57' W 003°17'714.6
2017-Jun-22 13:01N 58°52' W 003°28'918.1
2017-Jun-22 12:30N 58°43' W 003°30'612.8
2017-Jun-22 12:01N 58°37' W 003°32'0 0.1
2017-Jun-22 11:30N 58°37' W 003°32'714.5
2017-Jun-22 11:01N 58°44' W 003°30'917.4
2017-Jun-22 10:30N 58°52' W 003°28'714.5
2017-Jun-22 10:00N 58°57' W 003°18'0 0.7
2017-Jun-22 09:30N 58°58' W 003°18'1 2.4
2017-Jun-22 09:01N 58°57' W 003°19'815.3
2017-Jun-22 08:30N 58°51' W 003°28'917.5
2017-Jun-22 08:00N 58°42' W 003°31'611.0
2017-Jun-22 07:30N 58°37' W 003°32'3 4.3
2017-Jun-22 06:47N 58°40' W 003°31'517.6
2017-Jun-22 06:30N 58°45' W 003°30'918.4
2017-Jun-22 06:00N 58°54' W 003°27'612.2
2017-Jun-22 05:30N 58°58' W 003°18'0 0.4
2017-Jun-22 04:54N 58°58' W 003°18'0 0.0
2017-Jun-22 04:30N 58°58' W 003°18'0 0.0
2017-Jun-22 04:00N 58°58' W 003°18'0 0.0
2017-Jun-22 03:30N 58°58' W 003°18'0 0.0
2017-Jun-22 03:00N 58°58' W 003°18'0 0.0
2017-Jun-22 02:30N 58°58' W 003°18'0 0.0
2017-Jun-22 02:00N 58°58' W 003°18'0 0.0
2017-Jun-22 01:30N 58°58' W 003°18'0 0.0
2017-Jun-22 01:00N 58°58' W 003°18'0 0.0
2017-Jun-22 00:30N 58°58' W 003°18'0 0.0
2017-Jun-21 23:54N 58°58' W 003°18'0 0.0
2017-Jun-21 23:30N 58°58' W 003°18'0 0.0
2017-Jun-21 23:00N 58°58' W 003°18'0 0.0
2017-Jun-21 22:30N 58°58' W 003°18'0 0.0
2017-Jun-21 22:00N 58°58' W 003°18'0 0.0
2017-Jun-21 21:30N 58°58' W 003°18'0 0.0
2017-Jun-21 20:59N 58°58' W 003°18'0 0.0
2017-Jun-21 20:29N 58°58' W 003°18'0 0.0
2017-Jun-21 19:59N 58°58' W 003°18'0 0.0
2017-Jun-21 19:30N 58°58' W 003°18'4 7.9
2017-Jun-21 19:00N 58°56' W 003°24'917.2
2017-Jun-21 18:30N 58°48' W 003°30'917.6
2017-Jun-21 18:00N 58°39' W 003°31'3 5.0
2017-Jun-21 17:30N 58°37' W 003°32'2 4.6
2017-Jun-21 17:00N 58°39' W 003°31'917.8
2017-Jun-21 16:30N 58°48' W 003°29'917.8
2017-Jun-21 16:00N 58°56' W 003°24'4 7.1
2017-Jun-21 15:31N 58°58' W 003°18'0 0.0
2017-Jun-21 15:01N 58°58' W 003°18'0 0.0
2017-Jun-21 14:30N 58°58' W 003°18'2 1.7
2017-Jun-21 13:30N 58°57' W 003°20'815.8
2017-Jun-21 13:00N 58°50' W 003°28'918.0
2017-Jun-21 12:30N 58°41' W 003°31'5 9.2
2017-Jun-21 12:00N 58°37' W 003°32'0 0.1
2017-Jun-21 11:30N 58°37' W 003°32'714.5
2017-Jun-21 11:00N 58°44' W 003°30'917.0
2017-Jun-21 10:30N 58°52' W 003°28'714.6
2017-Jun-21 10:00N 58°57' W 003°18'0 0.8
2017-Jun-21 09:30N 58°58' W 003°18'1 2.1
2017-Jun-21 09:00N 58°57' W 003°18'714.3
2017-Jun-21 08:30N 58°52' W 003°28'917.9
2017-Jun-21 08:00N 58°43' W 003°30'612.7
2017-Jun-21 07:30N 58°37' W 003°32'0 0.3
2017-Jun-21 06:58N 58°37' W 003°32'715.8
2017-Jun-21 06:30N 58°44' W 003°30'918.1
2017-Jun-21 06:00N 58°53' W 003°27'713.6
2017-Jun-21 05:30N 58°57' W 003°18'0 0.6
2017-Jun-21 04:58N 58°58' W 003°18'0 0.0
2017-Jun-21 04:28N 58°58' W 003°18'0 0.0
2017-Jun-21 04:00N 58°58' W 003°18'0 0.0
2017-Jun-21 03:30N 58°58' W 003°18'0 0.0
2017-Jun-21 03:00N 58°58' W 003°18'0 0.0
2017-Jun-21 02:30N 58°58' W 003°18'0 0.0
2017-Jun-21 02:00N 58°58' W 003°18'0 0.0
2017-Jun-21 01:30N 58°58' W 003°18'0 0.0
2017-Jun-21 01:00N 58°58' W 003°18'0 0.0
2017-Jun-21 00:30N 58°58' W 003°18'0 0.0
2017-Jun-21 00:00N 58°58' W 003°18'0 0.0
2017-Jun-20 23:30N 58°58' W 003°18'0 0.0
2017-Jun-20 23:00N 58°58' W 003°18'0 0.0
2017-Jun-20 22:30N 58°58' W 003°18'0 0.0
2017-Jun-20 22:00N 58°58' W 003°18'0 0.0
2017-Jun-20 21:30N 58°58' W 003°18'0 0.0
2017-Jun-20 21:00N 58°58' W 003°18'0 0.0
2017-Jun-20 20:30N 58°58' W 003°18'0 0.0
2017-Jun-20 20:00N 58°58' W 003°18'0 0.0
2017-Jun-20 19:30N 58°58' W 003°18'4 8.5
2017-Jun-20 19:01N 58°56' W 003°25'816.9
2017-Jun-20 18:31N 58°48' W 003°30'917.3
2017-Jun-20 18:00N 58°39' W 003°32'2 4.9
2017-Jun-20 17:30N 58°37' W 003°32'3 5.8
2017-Jun-20 16:57N 58°40' W 003°31'817.8
2017-Jun-20 16:30N 58°48' W 003°29'917.8
2017-Jun-20 16:00N 58°56' W 003°24'4 7.1
2017-Jun-20 15:30N 58°58' W 003°18'0 0.0
2017-Jun-20 15:00N 58°58' W 003°18'0 0.0
2017-Jun-20 14:00N 58°58' W 003°18'1 1.2
2017-Jun-20 13:30N 58°57' W 003°17'714.8
2017-Jun-20 13:00N 58°52' W 003°27'917.7
2017-Jun-20 12:31N 58°43' W 003°30'713.2
2017-Jun-20 12:00N 58°37' W 003°32'0 0.0
2017-Jun-20 11:30N 58°37' W 003°32'713.8
2017-Jun-20 11:01N 58°43' W 003°30'917.2
2017-Jun-20 10:30N 58°52' W 003°28'715.0
2017-Jun-20 10:00N 58°57' W 003°17'1 1.5
2017-Jun-20 09:31N 58°58' W 003°18'2 3.0
2017-Jun-20 09:00N 58°57' W 003°20'815.6
2017-Jun-20 08:30N 58°50' W 003°28'917.3
2017-Jun-20 08:00N 58°42' W 003°30'5 8.5
2017-Jun-20 07:24N 58°37' W 003°32'3 4.2
2017-Jun-20 06:43N 58°39' W 003°31'417.9
2017-Jun-20 06:30N 58°43' W 003°30'918.1
2017-Jun-20 06:00N 58°52' W 003°28'714.5
2017-Jun-20 05:30N 58°57' W 003°17'1 1.7
2017-Jun-20 04:59N 58°58' W 003°18'0 0.0
2017-Jun-20 04:29N 58°58' W 003°18'0 0.0
2017-Jun-20 03:59N 58°58' W 003°18'0 0.0
2017-Jun-20 03:29N 58°58' W 003°18'0 0.0
2017-Jun-20 02:59N 58°58' W 003°18'0 0.0
2017-Jun-20 02:29N 58°58' W 003°18'0 0.0
2017-Jun-20 01:59N 58°58' W 003°18'0 0.0
2017-Jun-20 01:29N 58°58' W 003°18'0 0.0
2017-Jun-20 00:59N 58°58' W 003°18'0 0.0
2017-Jun-20 00:29N 58°58' W 003°18'0 0.0
2017-Jun-19 23:59N 58°58' W 003°18'0 0.0
2017-Jun-19 23:29N 58°58' W 003°18'0 0.0
2017-Jun-19 22:59N 58°58' W 003°18'0 0.0
2017-Jun-19 22:29N 58°58' W 003°18'0 0.0
2017-Jun-19 21:59N 58°58' W 003°18'0 0.0
2017-Jun-19 21:29N 58°58' W 003°18'0 0.0
2017-Jun-19 20:59N 58°58' W 003°18'0 0.0
2017-Jun-19 20:29N 58°58' W 003°18'0 0.0
2017-Jun-19 19:59N 58°58' W 003°18'0 0.0
2017-Jun-19 19:30N 58°58' W 003°18'510.0
2017-Jun-19 19:00N 58°55' W 003°26'917.1
2017-Jun-19 18:30N 58°47' W 003°29'917.3
2017-Jun-19 18:00N 58°38' W 003°31'1 2.9
2017-Jun-19 17:30N 58°37' W 003°32'3 5.7
2017-Jun-19 17:00N 58°39' W 003°31'918.0
2017-Jun-19 16:30N 58°48' W 003°29'917.1
2017-Jun-19 16:00N 58°56' W 003°23'3 6.6
2017-Jun-19 15:30N 58°58' W 003°18'0 0.0
2017-Jun-19 15:00N 58°58' W 003°18'0 0.0
2017-Jun-19 14:30N 58°58' W 003°18'1 1.1
2017-Jun-19 13:30N 58°57' W 003°19'815.9
2017-Jun-19 13:00N 58°51' W 003°28'917.8
2017-Jun-19 12:30N 58°42' W 003°31'510.4
2017-Jun-19 12:00N 58°37' W 003°32'0 0.0
2017-Jun-19 11:30N 58°37' W 003°32'713.4
2017-Jun-19 11:01N 58°43' W 003°30'917.3
2017-Jun-19 10:30N 58°52' W 003°28'815.1
2017-Jun-19 10:00N 58°57' W 003°17'1 1.7
2017-Jun-19 09:30N 58°58' W 003°18'1 1.3
2017-Jun-19 09:00N 58°57' W 003°17'714.8
2017-Jun-19 08:30N 58°52' W 003°28'918.1
2017-Jun-19 08:00N 58°43' W 003°30'713.5
2017-Jun-19 07:30N 58°37' W 003°32'0 0.0
2017-Jun-19 07:00N 58°37' W 003°32'612.6
2017-Jun-19 06:31N 58°43' W 003°30'918.0
2017-Jun-19 06:01N 58°52' W 003°28'815.3
2017-Jun-19 05:30N 58°57' W 003°17'1 1.4
2017-Jun-19 04:55N 58°58' W 003°18'0 0.0
2017-Jun-19 04:27N 58°58' W 003°18'0 0.0
2017-Jun-19 04:00N 58°58' W 003°18'0 0.0
2017-Jun-19 03:31N 58°58' W 003°18'0 0.0
2017-Jun-19 03:01N 58°58' W 003°18'0 0.0
2017-Jun-19 02:25N 58°58' W 003°18'0 0.0
2017-Jun-19 01:55N 58°58' W 003°18'0 0.0
2017-Jun-19 01:26N 58°58' W 003°18'0 0.0
2017-Jun-19 00:56N 58°58' W 003°18'0 0.0
2017-Jun-19 00:31N 58°58' W 003°18'0 0.0
2017-Jun-19 00:00N 58°58' W 003°18'0 0.0
2017-Jun-18 23:29N 58°58' W 003°18'0 0.0
2017-Jun-18 22:58N 58°58' W 003°18'0 0.0
2017-Jun-18 22:30N 58°58' W 003°18'0 0.0
2017-Jun-18 21:59N 58°58' W 003°18'0 0.0
2017-Jun-18 21:29N 58°58' W 003°18'0 0.0
2017-Jun-18 20:55N 58°58' W 003°18'0 0.0
2017-Jun-18 20:27N 58°58' W 003°18'0 0.0
2017-Jun-18 19:57N 58°58' W 003°18'0 0.0
2017-Jun-18 19:30N 58°58' W 003°18'4 8.4
2017-Jun-18 19:00N 58°56' W 003°25'917.4
2017-Jun-18 18:31N 58°47' W 003°29'917.3
2017-Jun-18 18:00N 58°39' W 003°31'2 4.5
2017-Jun-18 17:30N 58°37' W 003°32'3 5.3
2017-Jun-18 17:00N 58°39' W 003°31'917.9
2017-Jun-18 16:30N 58°48' W 003°29'816.9
2017-Jun-18 16:00N 58°56' W 003°24'4 7.6
2017-Jun-18 15:30N 58°58' W 003°18'0 0.0
2017-Jun-18 14:47N 58°58' W 003°18'0 0.0
2017-Jun-18 13:59N 58°58' W 003°18'0 0.0
2017-Jun-18 13:29N 58°58' W 003°18'0 0.0
2017-Jun-18 12:59N 58°58' W 003°18'0 0.0
2017-Jun-18 12:30N 58°58' W 003°18'5 9.2
2017-Jun-18 12:00N 58°55' W 003°25'917.5
2017-Jun-18 11:30N 58°47' W 003°29'917.3
2017-Jun-18 10:59N 58°38' W 003°31'2 1.1
2017-Jun-18 09:34N 58°37' W 003°32'0 0.3
2017-Jun-18 09:30N 58°37' W 003°32'714.8
2017-Jun-18 09:00N 58°44' W 003°30'817.1
2017-Jun-18 08:30N 58°52' W 003°28'714.6
2017-Jun-18 08:00N 58°57' W 003°18'1 0.9
2017-Jun-18 07:25N 58°58' W 003°18'0 0.0
2017-Jun-18 06:58N 58°58' W 003°18'0 0.0
2017-Jun-18 06:25N 58°58' W 003°18'0 0.0
2017-Jun-18 05:58N 58°58' W 003°18'0 0.0
2017-Jun-18 05:25N 58°58' W 003°18'0 0.0
2017-Jun-18 04:58N 58°58' W 003°18'0 0.0
2017-Jun-18 04:28N 58°58' W 003°18'0 0.0
2017-Jun-18 03:55N 58°58' W 003°18'0 0.0
2017-Jun-18 03:25N 58°58' W 003°18'0 0.0
2017-Jun-18 02:55N 58°58' W 003°18'0 0.0
2017-Jun-18 02:25N 58°58' W 003°18'0 0.0
2017-Jun-18 01:55N 58°58' W 003°18'0 0.0
2017-Jun-18 01:25N 58°58' W 003°18'0 0.0
2017-Jun-18 00:55N 58°58' W 003°18'0 0.0
2017-Jun-18 00:25N 58°58' W 003°18'0 0.0
2017-Jun-17 23:55N 58°58' W 003°18'0 0.0
2017-Jun-17 23:25N 58°58' W 003°18'0 0.0
2017-Jun-17 22:55N 58°58' W 003°18'0 0.0
2017-Jun-17 22:28N 58°58' W 003°18'0 0.0
2017-Jun-17 22:00N 58°58' W 003°18'0 0.0
2017-Jun-17 21:30N 58°58' W 003°18'0 0.0
2017-Jun-17 21:00N 58°58' W 003°18'0 0.0
2017-Jun-17 20:30N 58°58' W 003°18'0 0.0
2017-Jun-17 19:59N 58°58' W 003°18'0 0.0
2017-Jun-17 19:30N 58°58' W 003°18'4 8.9
2017-Jun-17 19:00N 58°56' W 003°25'918.1
2017-Jun-17 18:30N 58°47' W 003°29'917.5
2017-Jun-17 18:00N 58°38' W 003°31'1 1.3
2017-Jun-17 17:01N 58°39' W 003°31'017.9
2017-Jun-17 17:00N 58°40' W 003°31'917.8
2017-Jun-17 16:30N 58°48' W 003°29'816.4
2017-Jun-17 16:00N 58°56' W 003°24'3 7.0
2017-Jun-17 15:30N 58°58' W 003°18'0 0.0
2017-Jun-17 15:00N 58°58' W 003°18'0 0.0
2017-Jun-17 14:30N 58°58' W 003°18'2 1.5
2017-Jun-17 13:30N 58°57' W 003°20'815.7
2017-Jun-17 13:00N 58°50' W 003°28'917.4
2017-Jun-17 12:30N 58°41' W 003°31'5 5.2
2017-Jun-17 11:33N 58°37' W 003°32'2 8.5
2017-Jun-17 11:20N 58°38' W 003°31'617.9
2017-Jun-17 11:00N 58°44' W 003°30'917.3
2017-Jun-17 10:30N 58°53' W 003°28'713.7
2017-Jun-17 10:00N 58°57' W 003°18'0 0.6
2017-Jun-17 09:30N 58°58' W 003°18'1 2.2
2017-Jun-17 09:00N 58°57' W 003°19'815.7
2017-Jun-17 08:30N 58°51' W 003°28'918.1
2017-Jun-17 08:00N 58°42' W 003°31'510.6
2017-Jun-17 07:30N 58°37' W 003°32'0 0.2
2017-Jun-17 07:00N 58°37' W 003°32'816.4
2017-Jun-17 06:30N 58°45' W 003°30'917.0
2017-Jun-17 06:00N 58°53' W 003°27'713.7
2017-Jun-17 05:30N 58°58' W 003°18'0 0.4
2017-Jun-17 05:00N 58°58' W 003°18'0 0.0
2017-Jun-17 04:30N 58°58' W 003°18'0 0.0
2017-Jun-17 04:00N 58°58' W 003°18'0 0.0
2017-Jun-17 03:30N 58°58' W 003°18'0 0.0
2017-Jun-17 03:00N 58°58' W 003°18'0 0.0
2017-Jun-17 02:30N 58°58' W 003°18'0 0.0
2017-Jun-17 02:00N 58°58' W 003°18'0 0.0
2017-Jun-17 01:30N 58°58' W 003°18'0 0.0
2017-Jun-17 01:00N 58°58' W 003°18'0 0.0
2017-Jun-17 00:30N 58°58' W 003°18'0 0.0
2017-Jun-17 00:00N 58°58' W 003°18'0 0.0
2017-Jun-16 23:30N 58°58' W 003°18'0 0.0
2017-Jun-16 23:00N 58°58' W 003°18'0 0.0
2017-Jun-16 22:30N 58°58' W 003°18'0 0.0
2017-Jun-16 21:54N 58°58' W 003°18'0 0.0
2017-Jun-16 21:30N 58°58' W 003°18'0 0.0
2017-Jun-16 21:00N 58°58' W 003°18'0 0.0
2017-Jun-16 20:30N 58°58' W 003°18'0 0.0
2017-Jun-16 20:00N 58°58' W 003°18'0 0.0
2017-Jun-16 19:30N 58°58' W 003°18'4 8.2
2017-Jun-16 19:00N 58°56' W 003°25'918.6
2017-Jun-16 18:30N 58°47' W 003°29'917.9
2017-Jun-16 18:00N 58°38' W 003°31'2 3.2
2017-Jun-16 17:30N 58°37' W 003°32'2 4.9
2017-Jun-16 17:00N 58°39' W 003°31'917.9
2017-Jun-16 16:31N 58°48' W 003°29'917.0
2017-Jun-16 16:00N 58°56' W 003°24'4 7.5
2017-Jun-16 15:31N 58°58' W 003°18'0 0.0
2017-Jun-16 15:00N 58°58' W 003°18'0 0.0
2017-Jun-16 14:30N 58°58' W 003°18'1 1.4
2017-Jun-16 13:30N 58°57' W 003°20'815.5
2017-Jun-16 13:01N 58°50' W 003°28'917.5
2017-Jun-16 12:30N 58°42' W 003°30'510.3
2017-Jun-16 12:00N 58°37' W 003°32'0 0.2
2017-Jun-16 11:30N 58°37' W 003°32'816.2
2017-Jun-16 11:01N 58°44' W 003°30'918.1
2017-Jun-16 10:31N 58°53' W 003°27'612.7
2017-Jun-16 10:00N 58°58' W 003°18'0 0.5
2017-Jun-16 09:30N 58°58' W 003°18'1 1.7
2017-Jun-16 09:00N 58°57' W 003°17'815.3
2017-Jun-16 08:30N 58°52' W 003°28'918.1
2017-Jun-16 08:00N 58°43' W 003°30'612.0
2017-Jun-16 07:30N 58°37' W 003°32'0 0.0
2017-Jun-16 07:00N 58°37' W 003°32'714.2
2017-Jun-16 06:30N 58°44' W 003°30'917.5
2017-Jun-16 06:00N 58°52' W 003°28'714.6
2017-Jun-16 05:30N 58°57' W 003°18'0 0.9
2017-Jun-16 05:00N 58°58' W 003°18'0 0.0
2017-Jun-16 04:31N 58°58' W 003°18'0 0.0
2017-Jun-16 04:00N 58°58' W 003°18'0 0.0
2017-Jun-16 03:31N 58°58' W 003°18'0 0.0
2017-Jun-16 03:01N 58°58' W 003°18'0 0.0
2017-Jun-16 02:31N 58°58' W 003°18'0 0.0
2017-Jun-16 02:01N 58°58' W 003°18'0 0.0
2017-Jun-16 01:30N 58°58' W 003°18'0 0.0
2017-Jun-16 01:01N 58°58' W 003°18'0 0.0
2017-Jun-16 00:30N 58°58' W 003°18'0 0.0
2017-Jun-16 00:01N 58°58' W 003°18'0 0.0
2017-Jun-15 23:31N 58°58' W 003°18'0 0.0
2017-Jun-15 23:01N 58°58' W 003°18'0 0.0
2017-Jun-15 22:30N 58°58' W 003°18'0 0.0
2017-Jun-15 22:00N 58°58' W 003°18'0 0.0
2017-Jun-15 21:30N 58°58' W 003°18'0 0.0
2017-Jun-15 21:01N 58°58' W 003°18'0 0.0
2017-Jun-15 20:31N 58°58' W 003°18'0 0.0
2017-Jun-15 20:01N 58°58' W 003°18'0 0.0
2017-Jun-15 19:31N 58°58' W 003°18'3 6.7
2017-Jun-15 19:00N 58°56' W 003°24'917.9
2017-Jun-15 18:30N 58°48' W 003°28'917.7
2017-Jun-15 18:00N 58°39' W 003°31'2 5.0
2017-Jun-15 17:31N 58°37' W 003°32'2 3.1
2017-Jun-15 17:00N 58°38' W 003°31'918.0
2017-Jun-15 16:30N 58°47' W 003°29'917.1
2017-Jun-15 16:00N 58°55' W 003°26'5 9.4
2017-Jun-15 15:30N 58°58' W 003°18'0 0.0
2017-Jun-15 15:00N 58°58' W 003°18'0 0.0
2017-Jun-15 14:00N 58°58' W 003°18'1 2.3
2017-Jun-15 13:30N 58°57' W 003°19'815.4
2017-Jun-15 13:00N 58°51' W 003°28'917.5
2017-Jun-15 12:30N 58°42' W 003°30'610.3
2017-Jun-15 11:58N 58°37' W 003°32'0 0.2
2017-Jun-15 11:30N 58°37' W 003°32'816.8
2017-Jun-15 11:00N 58°45' W 003°29'918.6
2017-Jun-15 10:30N 58°54' W 003°27'612.1
2017-Jun-15 10:00N 58°58' W 003°18'0 0.5
2017-Jun-15 09:30N 58°58' W 003°18'1 2.0
2017-Jun-15 09:00N 58°57' W 003°17'815.8
2017-Jun-15 08:30N 58°51' W 003°28'918.0
2017-Jun-15 08:00N 58°42' W 003°30'611.4
2017-Jun-15 07:30N 58°37' W 003°32'0 0.4
2017-Jun-15 07:00N 58°37' W 003°32'815.8
2017-Jun-15 06:30N 58°44' W 003°31'917.3
2017-Jun-15 06:00N 58°53' W 003°27'713.7
2017-Jun-15 05:30N 58°58' W 003°18'0 0.4
2017-Jun-15 05:01N 58°58' W 003°18'0 0.0
2017-Jun-15 04:31N 58°58' W 003°18'0 0.0
2017-Jun-15 03:58N 58°58' W 003°18'0 0.0
2017-Jun-15 03:31N 58°58' W 003°18'0 0.0
2017-Jun-15 03:01N 58°58' W 003°18'0 0.0
2017-Jun-15 02:28N 58°58' W 003°18'0 0.0
2017-Jun-15 02:01N 58°58' W 003°18'0 0.0
2017-Jun-15 01:28N 58°58' W 003°18'0 0.0
2017-Jun-15 01:01N 58°58' W 003°18'0 0.0
2017-Jun-15 00:31N 58°58' W 003°18'0 0.0
2017-Jun-15 00:01N 58°58' W 003°18'0 0.0
2017-Jun-14 23:31N 58°58' W 003°18'0 0.0
2017-Jun-14 23:01N 58°58' W 003°18'0 0.0
2017-Jun-14 22:28N 58°58' W 003°18'0 0.0
2017-Jun-14 22:01N 58°58' W 003°18'0 0.0
2017-Jun-14 21:28N 58°58' W 003°18'0 0.0
2017-Jun-14 21:01N 58°58' W 003°18'0 0.0
2017-Jun-14 20:28N 58°58' W 003°18'0 0.0
2017-Jun-14 20:01N 58°58' W 003°18'0 0.0
2017-Jun-14 19:30N 58°58' W 003°18'4 8.1
2017-Jun-14 19:00N 58°56' W 003°25'918.1
2017-Jun-14 18:30N 58°47' W 003°28'917.8
2017-Jun-14 18:00N 58°38' W 003°31'2 3.2
2017-Jun-14 17:30N 58°37' W 003°32'4 7.1
2017-Jun-14 17:00N 58°40' W 003°31'917.7
2017-Jun-14 16:30N 58°49' W 003°29'816.3
2017-Jun-14 16:00N 58°57' W 003°23'3 5.9
2017-Jun-14 15:30N 58°58' W 003°18'0 0.0
2017-Jun-14 15:00N 58°58' W 003°18'0 0.0
2017-Jun-14 14:00N 58°58' W 003°18'0 0.5
2017-Jun-14 13:30N 58°58' W 003°18'713.8
2017-Jun-14 13:00N 58°53' W 003°27'917.7
2017-Jun-14 12:30N 58°44' W 003°30'714.8
2017-Jun-14 12:00N 58°37' W 003°32'0 0.1
2017-Jun-14 11:30N 58°37' W 003°32'713.8
2017-Jun-14 11:00N 58°43' W 003°30'918.2
2017-Jun-14 10:30N 58°52' W 003°28'714.5
2017-Jun-14 10:00N 58°57' W 003°17'1 1.5
2017-Jun-14 09:30N 58°58' W 003°18'1 2.2
2017-Jun-14 09:00N 58°57' W 003°19'815.7
2017-Jun-14 08:30N 58°51' W 003°29'918.0
2017-Jun-14 08:00N 58°42' W 003°29'611.0
2017-Jun-14 07:30N 58°37' W 003°32'1 1.9
2017-Jun-14 06:52N 58°38' W 003°31'718.5
2017-Jun-14 06:30N 58°44' W 003°30'917.5
2017-Jun-14 06:00N 58°53' W 003°27'713.8
2017-Jun-14 05:30N 58°58' W 003°18'0 0.4
2017-Jun-14 04:58N 58°58' W 003°18'0 0.0
2017-Jun-14 04:28N 58°58' W 003°18'0 0.0
2017-Jun-14 03:58N 58°58' W 003°18'0 0.0
2017-Jun-14 03:28N 58°58' W 003°18'0 0.0
2017-Jun-14 02:58N 58°58' W 003°18'0 0.0
2017-Jun-14 02:28N 58°58' W 003°18'0 0.0
2017-Jun-14 01:58N 58°58' W 003°18'0 0.0
2017-Jun-14 01:28N 58°58' W 003°18'0 0.0
2017-Jun-14 00:58N 58°58' W 003°18'0 0.0
2017-Jun-14 00:28N 58°58' W 003°18'0 0.0
2017-Jun-13 23:58N 58°58' W 003°18'0 0.0
2017-Jun-13 23:28N 58°58' W 003°18'0 0.0
2017-Jun-13 22:58N 58°58' W 003°18'0 0.0
2017-Jun-13 22:28N 58°58' W 003°18'0 0.0
2017-Jun-13 21:58N 58°58' W 003°18'0 0.0
2017-Jun-13 21:28N 58°58' W 003°18'0 0.0
2017-Jun-13 20:58N 58°58' W 003°18'0 0.0
2017-Jun-13 20:28N 58°58' W 003°18'0 0.0
2017-Jun-13 19:58N 58°58' W 003°18'0 0.0
2017-Jun-13 19:30N 58°58' W 003°18'511.0
2017-Jun-13 19:00N 58°54' W 003°26'917.8
2017-Jun-13 18:30N 58°46' W 003°30'917.0
2017-Jun-13 17:58N 58°37' W 003°32'0 0.4
2017-Jun-13 17:29N 58°37' W 003°32'3 5.8
2017-Jun-13 17:00N 58°39' W 003°31'917.8
2017-Jun-13 16:30N 58°48' W 003°29'816.6
2017-Jun-13 16:01N 58°56' W 003°25'4 7.8
2017-Jun-13 15:30N 58°58' W 003°18'0 0.0
2017-Jun-13 15:00N 58°58' W 003°18'0 0.0
2017-Jun-13 14:30N 58°58' W 003°18'1 1.2
2017-Jun-13 13:30N 58°57' W 003°19'815.6
2017-Jun-13 13:00N 58°51' W 003°28'917.4
2017-Jun-13 12:30N 58°42' W 003°30'5 9.4
2017-Jun-13 11:56N 58°37' W 003°32'4 5.1
2017-Jun-13 11:06N 58°41' W 003°31'218.1
2017-Jun-13 11:00N 58°43' W 003°31'918.4
2017-Jun-13 10:30N 58°52' W 003°28'714.5
2017-Jun-13 10:00N 58°57' W 003°18'1 2.0
2017-Jun-13 09:30N 58°58' W 003°18'1 2.2
2017-Jun-13 09:00N 58°57' W 003°19'815.3
2017-Jun-13 08:30N 58°51' W 003°28'  
Track history (hours):
 
Tides and Currents Weather Stations Pressure Air Temp Water Temp Dewpoint Dewpoint Depression Visibility Wind Speed Wind Dir Waves Ship Positions

Hamnavoe

Operator: NorthLink Orkey & Shetland Ferries Ltd

Last reported at 2017-Jun-23 08:30 UTC. Time now 2017-Jun-23 08:42 UTC.
Position N 58°50' W 003°29'.

Length 112 m; draft 4.2 m.

Type: Ship. MMSI: 235449000.

Date/timePositionNaut miles runAvg speedWind from/ knotsBaromVisibWave heightAir tempDewpointWater temp
2017-Jun-23 08:30N 58°50' W 003°29'917.4
2017-Jun-23 08:00N 58°42' W 003°30'510.2
2017-Jun-23 07:30N 58°37' W 003°32'0 0.1
2017-Jun-23 06:59N 58°37' W 003°32'816.0
2017-Jun-23 06:30N 58°44' W 003°30'917.9
2017-Jun-23 06:00N 58°53' W 003°28'713.2
2017-Jun-23 05:30N 58°57' W 003°18'1 1.0
2017-Jun-23 04:57N 58°58' W 003°18'0 0.0
2017-Jun-23 04:27N 58°58' W 003°18'0 0.0
2017-Jun-23 03:57N 58°58' W 003°18'0 0.0
2017-Jun-23 03:27N 58°58' W 003°18'0 0.0
2017-Jun-23 02:57N 58°58' W 003°18'0 0.0
2017-Jun-23 02:27N 58°58' W 003°18'0 0.0
2017-Jun-23 01:57N 58°58' W 003°18'0 0.0
2017-Jun-23 01:28N 58°58' W 003°18'0 0.0
2017-Jun-23 01:00N 58°58' W 003°18'0 0.0
2017-Jun-23 00:27N 58°58' W 003°18'0 0.0
2017-Jun-22 23:57N 58°58' W 003°18'0 0.0
2017-Jun-22 23:27N 58°58' W 003°18'0 0.0
2017-Jun-22 22:57N 58°58' W 003°18'0 0.0
2017-Jun-22 22:30N 58°58' W 003°18'0 0.0
2017-Jun-22 22:00N 58°58' W 003°18'0 0.0
2017-Jun-22 21:15N 58°58' W 003°18'0 0.0
2017-Jun-22 21:00N 58°58' W 003°18'0 0.0
2017-Jun-22 20:30N 58°58' W 003°18'0 0.0
2017-Jun-22 19:57N 58°58' W 003°18'0 0.0
2017-Jun-22 19:30N 58°58' W 003°18'611.5
2017-Jun-22 19:00N 58°54' W 003°27'816.9
2017-Jun-22 18:30N 58°46' W 003°31'917.9
2017-Jun-22 18:00N 58°37' W 003°32'1 1.1
2017-Jun-22 17:26N 58°37' W 003°32'3 7.6
2017-Jun-22 17:01N 58°40' W 003°30'917.6
2017-Jun-22 16:31N 58°48' W 003°27'916.9
2017-Jun-22 16:00N 58°56' W 003°23'3 5.7
2017-Jun-22 15:30N 58°58' W 003°18'0 0.0
2017-Jun-22 15:00N 58°58' W 003°18'0 0.0
2017-Jun-22 14:30N 58°58' W 003°18'1 1.0
2017-Jun-22 13:30N 58°57' W 003°17'714.6
2017-Jun-22 13:01N 58°52' W 003°28'918.1
2017-Jun-22 12:30N 58°43' W 003°30'612.8
2017-Jun-22 12:01N 58°37' W 003°32'0 0.1
2017-Jun-22 11:30N 58°37' W 003°32'714.5
2017-Jun-22 11:01N 58°44' W 003°30'917.4
2017-Jun-22 10:30N 58°52' W 003°28'714.5
2017-Jun-22 10:00N 58°57' W 003°18'0 0.7
2017-Jun-22 09:30N 58°58' W 003°18'1 2.4
2017-Jun-22 09:01N 58°57' W 003°19'815.3
2017-Jun-22 08:30N 58°51' W 003°28'917.5
2017-Jun-22 08:00N 58°42' W 003°31'611.0
2017-Jun-22 07:30N 58°37' W 003°32'3 4.3
2017-Jun-22 06:47N 58°40' W 003°31'517.6
2017-Jun-22 06:30N 58°45' W 003°30'918.4
2017-Jun-22 06:00N 58°54' W 003°27'612.2
2017-Jun-22 05:30N 58°58' W 003°18'0 0.4
2017-Jun-22 04:54N 58°58' W 003°18'0 0.0
2017-Jun-22 04:30N 58°58' W 003°18'0 0.0
2017-Jun-22 04:00N 58°58' W 003°18'0 0.0
2017-Jun-22 03:30N 58°58' W 003°18'0 0.0
2017-Jun-22 03:00N 58°58' W 003°18'0 0.0
2017-Jun-22 02:30N 58°58' W 003°18'0 0.0
2017-Jun-22 02:00N 58°58' W 003°18'0 0.0
2017-Jun-22 01:30N 58°58' W 003°18'0 0.0
2017-Jun-22 01:00N 58°58' W 003°18'0 0.0
2017-Jun-22 00:30N 58°58' W 003°18'0 0.0
2017-Jun-21 23:54N 58°58' W 003°18'0 0.0
2017-Jun-21 23:30N 58°58' W 003°18'0 0.0
2017-Jun-21 23:00N 58°58' W 003°18'0 0.0
2017-Jun-21 22:30N 58°58' W 003°18'0 0.0
2017-Jun-21 22:00N 58°58' W 003°18'0 0.0
2017-Jun-21 21:30N 58°58' W 003°18'0 0.0
2017-Jun-21 20:59N 58°58' W 003°18'0 0.0
2017-Jun-21 20:29N 58°58' W 003°18'0 0.0
2017-Jun-21 19:59N 58°58' W 003°18'0 0.0
2017-Jun-21 19:30N 58°58' W 003°18'4 7.9
2017-Jun-21 19:00N 58°56' W 003°24'917.2
2017-Jun-21 18:30N 58°48' W 003°30'917.6
2017-Jun-21 18:00N 58°39' W 003°31'3 5.0
2017-Jun-21 17:30N 58°37' W 003°32'2 4.6
2017-Jun-21 17:00N 58°39' W 003°31'917.8
2017-Jun-21 16:30N 58°48' W 003°29'917.8
2017-Jun-21 16:00N 58°56' W 003°24'4 7.1
2017-Jun-21 15:31N 58°58' W 003°18'0 0.0
2017-Jun-21 15:01N 58°58' W 003°18'0 0.0
2017-Jun-21 14:30N 58°58' W 003°18'2 1.7
2017-Jun-21 13:30N 58°57' W 003°20'815.8
2017-Jun-21 13:00N 58°50' W 003°28'918.0
2017-Jun-21 12:30N 58°41' W 003°31'5 9.2
2017-Jun-21 12:00N 58°37' W 003°32'0 0.1
2017-Jun-21 11:30N 58°37' W 003°32'714.5
2017-Jun-21 11:00N 58°44' W 003°30'917.0
2017-Jun-21 10:30N 58°52' W 003°28'714.6
2017-Jun-21 10:00N 58°57' W 003°18'0 0.8
2017-Jun-21 09:30N 58°58' W 003°18'1 2.1
2017-Jun-21 09:00N 58°57' W 003°18'714.3
2017-Jun-21 08:30N 58°52' W 003°28'917.9
2017-Jun-21 08:00N 58°43' W 003°30'612.7
2017-Jun-21 07:30N 58°37' W 003°32'0 0.3
2017-Jun-21 06:58N 58°37' W 003°32'715.8
2017-Jun-21 06:30N 58°44' W 003°30'918.1
2017-Jun-21 06:00N 58°53' W 003°27'713.6
2017-Jun-21 05:30N 58°57' W 003°18'0 0.6
2017-Jun-21 04:58N 58°58' W 003°18'0 0.0
2017-Jun-21 04:28N 58°58' W 003°18'0 0.0
2017-Jun-21 04:00N 58°58' W 003°18'0 0.0
2017-Jun-21 03:30N 58°58' W 003°18'0 0.0
2017-Jun-21 03:00N 58°58' W 003°18'0 0.0
2017-Jun-21 02:30N 58°58' W 003°18'0 0.0
2017-Jun-21 02:00N 58°58' W 003°18'0 0.0
2017-Jun-21 01:30N 58°58' W 003°18'0 0.0
2017-Jun-21 01:00N 58°58' W 003°18'0 0.0
2017-Jun-21 00:30N 58°58' W 003°18'0 0.0
2017-Jun-21 00:00N 58°58' W 003°18'0 0.0
2017-Jun-20 23:30N 58°58' W 003°18'0 0.0
2017-Jun-20 23:00N 58°58' W 003°18'0 0.0
2017-Jun-20 22:30N 58°58' W 003°18'0 0.0
2017-Jun-20 22:00N 58°58' W 003°18'0 0.0
2017-Jun-20 21:30N 58°58' W 003°18'0 0.0
2017-Jun-20 21:00N 58°58' W 003°18'0 0.0
2017-Jun-20 20:30N 58°58' W 003°18'0 0.0
2017-Jun-20 20:00N 58°58' W 003°18'0 0.0
2017-Jun-20 19:30N 58°58' W 003°18'4 8.5
2017-Jun-20 19:01N 58°56' W 003°25'816.9
2017-Jun-20 18:31N 58°48' W 003°30'917.3
2017-Jun-20 18:00N 58°39' W 003°32'2 4.9
2017-Jun-20 17:30N 58°37' W 003°32'3 5.8
2017-Jun-20 16:57N 58°40' W 003°31'817.8
2017-Jun-20 16:30N 58°48' W 003°29'917.8
2017-Jun-20 16:00N 58°56' W 003°24'4 7.1
2017-Jun-20 15:30N 58°58' W 003°18'0 0.0
2017-Jun-20 15:00N 58°58' W 003°18'0 0.0
2017-Jun-20 14:00N 58°58' W 003°18'1 1.2
2017-Jun-20 13:30N 58°57' W 003°17'714.8
2017-Jun-20 13:00N 58°52' W 003°27'917.7
2017-Jun-20 12:31N 58°43' W 003°30'713.2
2017-Jun-20 12:00N 58°37' W 003°32'0 0.0
2017-Jun-20 11:30N 58°37' W 003°32'713.8
2017-Jun-20 11:01N 58°43' W 003°30'917.2
2017-Jun-20 10:30N 58°52' W 003°28'715.0
2017-Jun-20 10:00N 58°57' W 003°17'1 1.5
2017-Jun-20 09:31N 58°58' W 003°18'2 3.0
2017-Jun-20 09:00N 58°57' W 003°20'815.6
2017-Jun-20 08:30N 58°50' W 003°28'917.3
2017-Jun-20 08:00N 58°42' W 003°30'5 8.5
2017-Jun-20 07:24N 58°37' W 003°32'3 4.2
2017-Jun-20 06:43N 58°39' W 003°31'417.9
2017-Jun-20 06:30N 58°43' W 003°30'918.1
2017-Jun-20 06:00N 58°52' W 003°28'714.5
2017-Jun-20 05:30N 58°57' W 003°17'1 1.7
2017-Jun-20 04:59N 58°58' W 003°18'0 0.0
2017-Jun-20 04:29N 58°58' W 003°18'0 0.0
2017-Jun-20 03:59N 58°58' W 003°18'0 0.0
2017-Jun-20 03:29N 58°58' W 003°18'0 0.0
2017-Jun-20 02:59N 58°58' W 003°18'0 0.0
2017-Jun-20 02:29N 58°58' W 003°18'0 0.0
2017-Jun-20 01:59N 58°58' W 003°18'0 0.0
2017-Jun-20 01:29N 58°58' W 003°18'0 0.0
2017-Jun-20 00:59N 58°58' W 003°18'0 0.0
2017-Jun-20 00:29N 58°58' W 003°18'0 0.0
2017-Jun-19 23:59N 58°58' W 003°18'0 0.0
2017-Jun-19 23:29N 58°58' W 003°18'0 0.0
2017-Jun-19 22:59N 58°58' W 003°18'0 0.0
2017-Jun-19 22:29N 58°58' W 003°18'0 0.0
2017-Jun-19 21:59N 58°58' W 003°18'0 0.0
2017-Jun-19 21:29N 58°58' W 003°18'0 0.0
2017-Jun-19 20:59N 58°58' W 003°18'0 0.0
2017-Jun-19 20:29N 58°58' W 003°18'0 0.0
2017-Jun-19 19:59N 58°58' W 003°18'0 0.0
2017-Jun-19 19:30N 58°58' W 003°18'510.0
2017-Jun-19 19:00N 58°55' W 003°26'917.1
2017-Jun-19 18:30N 58°47' W 003°29'917.3
2017-Jun-19 18:00N 58°38' W 003°31'1 2.9
2017-Jun-19 17:30N 58°37' W 003°32'3 5.7
2017-Jun-19 17:00N 58°39' W 003°31'918.0
2017-Jun-19 16:30N 58°48' W 003°29'917.1
2017-Jun-19 16:00N 58°56' W 003°23'3 6.6
2017-Jun-19 15:30N 58°58' W 003°18'0 0.0
2017-Jun-19 15:00N 58°58' W 003°18'0 0.0
2017-Jun-19 14:30N 58°58' W 003°18'1 1.1
2017-Jun-19 13:30N 58°57' W 003°19'815.9
2017-Jun-19 13:00N 58°51' W 003°28'917.8
2017-Jun-19 12:30N 58°42' W 003°31'510.4
2017-Jun-19 12:00N 58°37' W 003°32'0 0.0
2017-Jun-19 11:30N 58°37' W 003°32'713.4
2017-Jun-19 11:01N 58°43' W 003°30'917.3
2017-Jun-19 10:30N 58°52' W 003°28'815.1
2017-Jun-19 10:00N 58°57' W 003°17'1 1.7
2017-Jun-19 09:30N 58°58' W 003°18'1 1.3
2017-Jun-19 09:00N 58°57' W 003°17'714.8
2017-Jun-19 08:30N 58°52' W 003°28'918.1
2017-Jun-19 08:00N 58°43' W 003°30'713.5
2017-Jun-19 07:30N 58°37' W 003°32'0 0.0
2017-Jun-19 07:00N 58°37' W 003°32'612.6
2017-Jun-19 06:31N 58°43' W 003°30'918.0
2017-Jun-19 06:01N 58°52' W 003°28'815.3
2017-Jun-19 05:30N 58°57' W 003°17'1 1.4
2017-Jun-19 04:55N 58°58' W 003°18'0 0.0
2017-Jun-19 04:27N 58°58' W 003°18'0 0.0
2017-Jun-19 04:00N 58°58' W 003°18'0 0.0
2017-Jun-19 03:31N 58°58' W 003°18'0 0.0
2017-Jun-19 03:01N 58°58' W 003°18'0 0.0
2017-Jun-19 02:25N 58°58' W 003°18'0 0.0
2017-Jun-19 01:55N 58°58' W 003°18'0 0.0
2017-Jun-19 01:26N 58°58' W 003°18'0 0.0
2017-Jun-19 00:56N 58°58' W 003°18'0 0.0
2017-Jun-19 00:31N 58°58' W 003°18'0 0.0
2017-Jun-19 00:00N 58°58' W 003°18'0 0.0
2017-Jun-18 23:29N 58°58' W 003°18'0 0.0
2017-Jun-18 22:58N 58°58' W 003°18'0 0.0
2017-Jun-18 22:30N 58°58' W 003°18'0 0.0
2017-Jun-18 21:59N 58°58' W 003°18'0 0.0
2017-Jun-18 21:29N 58°58' W 003°18'0 0.0
2017-Jun-18 20:55N 58°58' W 003°18'0 0.0
2017-Jun-18 20:27N 58°58' W 003°18'0 0.0
2017-Jun-18 19:57N 58°58' W 003°18'0 0.0
2017-Jun-18 19:30N 58°58' W 003°18'4 8.4
2017-Jun-18 19:00N 58°56' W 003°25'917.4
2017-Jun-18 18:31N 58°47' W 003°29'917.3
2017-Jun-18 18:00N 58°39' W 003°31'2 4.5
2017-Jun-18 17:30N 58°37' W 003°32'3 5.3
2017-Jun-18 17:00N 58°39' W 003°31'917.9
2017-Jun-18 16:30N 58°48' W 003°29'816.9
2017-Jun-18 16:00N 58°56' W 003°24'4 7.6
2017-Jun-18 15:30N 58°58' W 003°18'0 0.0
2017-Jun-18 14:47N 58°58' W 003°18'0 0.0
2017-Jun-18 13:59N 58°58' W 003°18'0 0.0
2017-Jun-18 13:29N 58°58' W 003°18'0 0.0
2017-Jun-18 12:59N 58°58' W 003°18'0 0.0
2017-Jun-18 12:30N 58°58' W 003°18'5 9.2
2017-Jun-18 12:00N 58°55' W 003°25'917.5
2017-Jun-18 11:30N 58°47' W 003°29'917.3
2017-Jun-18 10:59N 58°38' W 003°31'2 1.1
2017-Jun-18 09:34N 58°37' W 003°32'0 0.3
2017-Jun-18 09:30N 58°37' W 003°32'714.8
2017-Jun-18 09:00N 58°44' W 003°30'817.1
2017-Jun-18 08:30N 58°52' W 003°28'714.6
2017-Jun-18 08:00N 58°57' W 003°18'1 0.9
2017-Jun-18 07:25N 58°58' W 003°18'0 0.0
2017-Jun-18 06:58N 58°58' W 003°18'0 0.0
2017-Jun-18 06:25N 58°58' W 003°18'0 0.0
2017-Jun-18 05:58N 58°58' W 003°18'0 0.0
2017-Jun-18 05:25N 58°58' W 003°18'0 0.0
2017-Jun-18 04:58N 58°58' W 003°18'0 0.0
2017-Jun-18 04:28N 58°58' W 003°18'0 0.0
2017-Jun-18 03:55N 58°58' W 003°18'0 0.0
2017-Jun-18 03:25N 58°58' W 003°18'0 0.0
2017-Jun-18 02:55N 58°58' W 003°18'0 0.0
2017-Jun-18 02:25N 58°58' W 003°18'0 0.0
2017-Jun-18 01:55N 58°58' W 003°18'0 0.0
2017-Jun-18 01:25N 58°58' W 003°18'0 0.0
2017-Jun-18 00:55N 58°58' W 003°18'0 0.0
2017-Jun-18 00:25N 58°58' W 003°18'0 0.0
2017-Jun-17 23:55N 58°58' W 003°18'0 0.0
2017-Jun-17 23:25N 58°58' W 003°18'0 0.0
2017-Jun-17 22:55N 58°58' W 003°18'0 0.0
2017-Jun-17 22:28N 58°58' W 003°18'0 0.0
2017-Jun-17 22:00N 58°58' W 003°18'0 0.0
2017-Jun-17 21:30N 58°58' W 003°18'0 0.0
2017-Jun-17 21:00N 58°58' W 003°18'0 0.0
2017-Jun-17 20:30N 58°58' W 003°18'0 0.0
2017-Jun-17 19:59N 58°58' W 003°18'0 0.0
2017-Jun-17 19:30N 58°58' W 003°18'4 8.9
2017-Jun-17 19:00N 58°56' W 003°25'918.1
2017-Jun-17 18:30N 58°47' W 003°29'917.5
2017-Jun-17 18:00N 58°38' W 003°31'1 1.3
2017-Jun-17 17:01N 58°39' W 003°31'017.9
2017-Jun-17 17:00N 58°40' W 003°31'917.8
2017-Jun-17 16:30N 58°48' W 003°29'816.4
2017-Jun-17 16:00N 58°56' W 003°24'3 7.0
2017-Jun-17 15:30N 58°58' W 003°18'0 0.0
2017-Jun-17 15:00N 58°58' W 003°18'0 0.0
2017-Jun-17 14:30N 58°58' W 003°18'2 1.5
2017-Jun-17 13:30N 58°57' W 003°20'815.7
2017-Jun-17 13:00N 58°50' W 003°28'917.4
2017-Jun-17 12:30N 58°41' W 003°31'5 5.2
2017-Jun-17 11:33N 58°37' W 003°32'2 8.5
2017-Jun-17 11:20N 58°38' W 003°31'617.9
2017-Jun-17 11:00N 58°44' W 003°30'917.3
2017-Jun-17 10:30N 58°53' W 003°28'713.7
2017-Jun-17 10:00N 58°57' W 003°18'0 0.6
2017-Jun-17 09:30N 58°58' W 003°18'1 2.2
2017-Jun-17 09:00N 58°57' W 003°19'815.7
2017-Jun-17 08:30N 58°51' W 003°28'918.1
2017-Jun-17 08:00N 58°42' W 003°31'510.6
2017-Jun-17 07:30N 58°37' W 003°32'0 0.2
2017-Jun-17 07:00N 58°37' W 003°32'816.4
2017-Jun-17 06:30N 58°45' W 003°30'917.0
2017-Jun-17 06:00N 58°53' W 003°27'713.7
2017-Jun-17 05:30N 58°58' W 003°18'0 0.4
2017-Jun-17 05:00N 58°58' W 003°18'0 0.0
2017-Jun-17 04:30N 58°58' W 003°18'0 0.0
2017-Jun-17 04:00N 58°58' W 003°18'0 0.0
2017-Jun-17 03:30N 58°58' W 003°18'0 0.0
2017-Jun-17 03:00N 58°58' W 003°18'0 0.0
2017-Jun-17 02:30N 58°58' W 003°18'0 0.0
2017-Jun-17 02:00N 58°58' W 003°18'0 0.0
2017-Jun-17 01:30N 58°58' W 003°18'0 0.0
2017-Jun-17 01:00N 58°58' W 003°18'0 0.0
2017-Jun-17 00:30N 58°58' W 003°18'0 0.0
2017-Jun-17 00:00N 58°58' W 003°18'0 0.0
2017-Jun-16 23:30N 58°58' W 003°18'0 0.0
2017-Jun-16 23:00N 58°58' W 003°18'0 0.0
2017-Jun-16 22:30N 58°58' W 003°18'0 0.0
2017-Jun-16 21:54N 58°58' W 003°18'0 0.0
2017-Jun-16 21:30N 58°58' W 003°18'0 0.0
2017-Jun-16 21:00N 58°58' W 003°18'0 0.0
2017-Jun-16 20:30N 58°58' W 003°18'0 0.0
2017-Jun-16 20:00N 58°58' W 003°18'0 0.0
2017-Jun-16 19:30N 58°58' W 003°18'4 8.2
2017-Jun-16 19:00N 58°56' W 003°25'918.6
2017-Jun-16 18:30N 58°47' W 003°29'917.9
2017-Jun-16 18:00N 58°38' W 003°31'2 3.2
2017-Jun-16 17:30N 58°37' W 003°32'2 4.9
2017-Jun-16 17:00N 58°39' W 003°31'917.9
2017-Jun-16 16:31N 58°48' W 003°29'917.0
2017-Jun-16 16:00N 58°56' W 003°24'4 7.5
2017-Jun-16 15:31N 58°58' W 003°18'0 0.0
2017-Jun-16 15:00N 58°58' W 003°18'0 0.0
2017-Jun-16 14:30N 58°58' W 003°18'1 1.4
2017-Jun-16 13:30N 58°57' W 003°20'815.5
2017-Jun-16 13:01N 58°50' W 003°28'917.5
2017-Jun-16 12:30N 58°42' W 003°30'510.3
2017-Jun-16 12:00N 58°37' W 003°32'0 0.2
2017-Jun-16 11:30N 58°37' W 003°32'816.2
2017-Jun-16 11:01N 58°44' W 003°30'918.1
2017-Jun-16 10:31N 58°53' W 003°27'612.7
2017-Jun-16 10:00N 58°58' W 003°18'0 0.5
2017-Jun-16 09:30N 58°58' W 003°18'1 1.7
2017-Jun-16 09:00N 58°57' W 003°17'815.3
2017-Jun-16 08:30N 58°52' W 003°28'918.1
2017-Jun-16 08:00N 58°43' W 003°30'612.0
2017-Jun-16 07:30N 58°37' W 003°32'0 0.0
2017-Jun-16 07:00N 58°37' W 003°32'714.2
2017-Jun-16 06:30N 58°44' W 003°30'917.5
2017-Jun-16 06:00N 58°52' W 003°28'714.6
2017-Jun-16 05:30N 58°57' W 003°18'0 0.9
2017-Jun-16 05:00N 58°58' W 003°18'0 0.0
2017-Jun-16 04:31N 58°58' W 003°18'0 0.0
2017-Jun-16 04:00N 58°58' W 003°18'0 0.0
2017-Jun-16 03:31N 58°58' W 003°18'0 0.0
2017-Jun-16 03:01N 58°58' W 003°18'0 0.0
2017-Jun-16 02:31N 58°58' W 003°18'0 0.0
2017-Jun-16 02:01N 58°58' W 003°18'0 0.0
2017-Jun-16 01:30N 58°58' W 003°18'0 0.0
2017-Jun-16 01:01N 58°58' W 003°18'0 0.0
2017-Jun-16 00:30N 58°58' W 003°18'0 0.0
2017-Jun-16 00:01N 58°58' W 003°18'0 0.0
2017-Jun-15 23:31N 58°58' W 003°18'0 0.0
2017-Jun-15 23:01N 58°58' W 003°18'0 0.0
2017-Jun-15 22:30N 58°58' W 003°18'0 0.0
2017-Jun-15 22:00N 58°58' W 003°18'0 0.0
2017-Jun-15 21:30N 58°58' W 003°18'0 0.0
2017-Jun-15 21:01N 58°58' W 003°18'0 0.0
2017-Jun-15 20:31N 58°58' W 003°18'0 0.0
2017-Jun-15 20:01N 58°58' W 003°18'0 0.0
2017-Jun-15 19:31N 58°58' W 003°18'3 6.7
2017-Jun-15 19:00N 58°56' W 003°24'917.9
2017-Jun-15 18:30N 58°48' W 003°28'917.7
2017-Jun-15 18:00N 58°39' W 003°31'2 5.0
2017-Jun-15 17:31N 58°37' W 003°32'2 3.1
2017-Jun-15 17:00N 58°38' W 003°31'918.0
2017-Jun-15 16:30N 58°47' W 003°29'917.1
2017-Jun-15 16:00N 58°55' W 003°26'5 9.4
2017-Jun-15 15:30N 58°58' W 003°18'0 0.0
2017-Jun-15 15:00N 58°58' W 003°18'0 0.0
2017-Jun-15 14:00N 58°58' W 003°18'1 2.3
2017-Jun-15 13:30N 58°57' W 003°19'815.4
2017-Jun-15 13:00N 58°51' W 003°28'917.5
2017-Jun-15 12:30N 58°42' W 003°30'610.3
2017-Jun-15 11:58N 58°37' W 003°32'0 0.2
2017-Jun-15 11:30N 58°37' W 003°32'816.8
2017-Jun-15 11:00N 58°45' W 003°29'918.6
2017-Jun-15 10:30N 58°54' W 003°27'612.1
2017-Jun-15 10:00N 58°58' W 003°18'0 0.5
2017-Jun-15 09:30N 58°58' W 003°18'1 2.0
2017-Jun-15 09:00N 58°57' W 003°17'815.8
2017-Jun-15 08:30N 58°51' W 003°28'918.0
2017-Jun-15 08:00N 58°42' W 003°30'611.4
2017-Jun-15 07:30N 58°37' W 003°32'0 0.4
2017-Jun-15 07:00N 58°37' W 003°32'815.8
2017-Jun-15 06:30N 58°44' W 003°31'917.3
2017-Jun-15 06:00N 58°53' W 003°27'713.7
2017-Jun-15 05:30N 58°58' W 003°18'0 0.4
2017-Jun-15 05:01N 58°58' W 003°18'0 0.0
2017-Jun-15 04:31N 58°58' W 003°18'0 0.0
2017-Jun-15 03:58N 58°58' W 003°18'0 0.0
2017-Jun-15 03:31N 58°58' W 003°18'0 0.0
2017-Jun-15 03:01N 58°58' W 003°18'0 0.0
2017-Jun-15 02:28N 58°58' W 003°18'0 0.0
2017-Jun-15 02:01N 58°58' W 003°18'0 0.0
2017-Jun-15 01:28N 58°58' W 003°18'0 0.0
2017-Jun-15 01:01N 58°58' W 003°18'0 0.0
2017-Jun-15 00:31N 58°58' W 003°18'0 0.0
2017-Jun-15 00:01N 58°58' W 003°18'0 0.0
2017-Jun-14 23:31N 58°58' W 003°18'0 0.0
2017-Jun-14 23:01N 58°58' W 003°18'0 0.0
2017-Jun-14 22:28N 58°58' W 003°18'0 0.0
2017-Jun-14 22:01N 58°58' W 003°18'0 0.0
2017-Jun-14 21:28N 58°58' W 003°18'0 0.0
2017-Jun-14 21:01N 58°58' W 003°18'0 0.0
2017-Jun-14 20:28N 58°58' W 003°18'0 0.0
2017-Jun-14 20:01N 58°58' W 003°18'0 0.0
2017-Jun-14 19:30N 58°58' W 003°18'4 8.1
2017-Jun-14 19:00N 58°56' W 003°25'918.1
2017-Jun-14 18:30N 58°47' W 003°28'917.8
2017-Jun-14 18:00N 58°38' W 003°31'2 3.2
2017-Jun-14 17:30N 58°37' W 003°32'4 7.1
2017-Jun-14 17:00N 58°40' W 003°31'917.7
2017-Jun-14 16:30N 58°49' W 003°29'816.3
2017-Jun-14 16:00N 58°57' W 003°23'3 5.9
2017-Jun-14 15:30N 58°58' W 003°18'0 0.0
2017-Jun-14 15:00N 58°58' W 003°18'0 0.0
2017-Jun-14 14:00N 58°58' W 003°18'0 0.5
2017-Jun-14 13:30N 58°58' W 003°18'713.8
2017-Jun-14 13:00N 58°53' W 003°27'917.7
2017-Jun-14 12:30N 58°44' W 003°30'714.8
2017-Jun-14 12:00N 58°37' W 003°32'0 0.1
2017-Jun-14 11:30N 58°37' W 003°32'713.8
2017-Jun-14 11:00N 58°43' W 003°30'918.2
2017-Jun-14 10:30N 58°52' W 003°28'714.5
2017-Jun-14 10:00N 58°57' W 003°17'1 1.5
2017-Jun-14 09:30N 58°58' W 003°18'1 2.2
2017-Jun-14 09:00N 58°57' W 003°19'815.7
2017-Jun-14 08:30N 58°51' W 003°29'918.0
2017-Jun-14 08:00N 58°42' W 003°29'611.0
2017-Jun-14 07:30N 58°37' W 003°32'1 1.9
2017-Jun-14 06:52N 58°38' W 003°31'718.5
2017-Jun-14 06:30N 58°44' W 003°30'917.5
2017-Jun-14 06:00N 58°53' W 003°27'713.8
2017-Jun-14 05:30N 58°58' W 003°18'0 0.4
2017-Jun-14 04:58N 58°58' W 003°18'0 0.0
2017-Jun-14 04:28N 58°58' W 003°18'0 0.0
2017-Jun-14 03:58N 58°58' W 003°18'0 0.0
2017-Jun-14 03:28N 58°58' W 003°18'0 0.0
2017-Jun-14 02:58N 58°58' W 003°18'0 0.0
2017-Jun-14 02:28N 58°58' W 003°18'0 0.0
2017-Jun-14 01:58N 58°58' W 003°18'0 0.0
2017-Jun-14 01:28N 58°58' W 003°18'0 0.0
2017-Jun-14 00:58N 58°58' W 003°18'0 0.0
2017-Jun-14 00:28N 58°58' W 003°18'0 0.0
2017-Jun-13 23:58N 58°58' W 003°18'0 0.0
2017-Jun-13 23:28N 58°58' W 003°18'0 0.0
2017-Jun-13 22:58N 58°58' W 003°18'0 0.0
2017-Jun-13 22:28N 58°58' W 003°18'0 0.0
2017-Jun-13 21:58N 58°58' W 003°18'0 0.0
2017-Jun-13 21:28N 58°58' W 003°18'0 0.0
2017-Jun-13 20:58N 58°58' W 003°18'0 0.0
2017-Jun-13 20:28N 58°58' W 003°18'0 0.0
2017-Jun-13 19:58N 58°58' W 003°18'0 0.0
2017-Jun-13 19:30N 58°58' W 003°18'511.0
2017-Jun-13 19:00N 58°54' W 003°26'917.8
2017-Jun-13 18:30N 58°46' W 003°30'917.0
2017-Jun-13 17:58N 58°37' W 003°32'0 0.4
2017-Jun-13 17:29N 58°37' W 003°32'3 5.8
2017-Jun-13 17:00N 58°39' W 003°31'917.8
2017-Jun-13 16:30N 58°48' W 003°29'816.6
2017-Jun-13 16:01N 58°56' W 003°25'4 7.8
2017-Jun-13 15:30N 58°58' W 003°18'0 0.0
2017-Jun-13 15:00N 58°58' W 003°18'0 0.0
2017-Jun-13 14:30N 58°58' W 003°18'1 1.2
2017-Jun-13 13:30N 58°57' W 003°19'815.6
2017-Jun-13 13:00N 58°51' W 003°28'917.4
2017-Jun-13 12:30N 58°42' W 003°30'5 9.4
2017-Jun-13 11:56N 58°37' W 003°32'4 5.1
2017-Jun-13 11:06N 58°41' W 003°31'218.1
2017-Jun-13 11:00N 58°43' W 003°31'918.4
2017-Jun-13 10:30N 58°52' W 003°28'714.5
2017-Jun-13 10:00N 58°57' W 003°18'1 2.0
2017-Jun-13 09:30N 58°58' W 003°18'1 2.2
2017-Jun-13 09:00N 58°57' W 003°19'815.3
2017-Jun-13 08:30N 58°51' W 003°28'  

Dump ship's entire track history